Airfield :
LOGIN :

Register | Disclaimer

   EN    FR    IT 

 










Legend :    VFR   Marginal VFR   IFR   Intensive IFR   Very Intensive IFR
Visi :
Ceiling :
>= 8 km
>= 3000ft
5 to 8 km
1000 to 3000 ft
1500m to 5 km
500 to 1000 ft
800 to 1500m
200 to 500 ft
< 800m
< 200 ft
Symbols :   Thunderstorms  Fog  Heavy snow  Heavy precipitations  Wind > 20 kt
SIGMETs :     Misc.  Thunderstorms  Icing  Turbulence  Mountain Waves  Volcanic Ashes






- Airport Elevation : 2119 ft


LERL - Central

CURRENT METAR :
  • 251400Z 26015KT 230V300 9999 OVC013 14/12 Q1015

EXPIRED METARs :
  • 251330Z 25017G28KT 210V280 8000 FEW010 BKN015 BKN022 14/12 Q1015 REDZ
  • 251300Z 24017G27KT 200V270 5000 DZ BKN011 BKN017 OVC022 14/12 Q1015 REDZ
  • 251253Z 24017G27KT 2000 DZ BKN011 OVC019 14/12 Q1015 REDZ
  • 251230Z 24014KT 200V270 5000 DZ FEW008 BKN012 OVC031 13/12 Q1016 REDZ
  • 251223Z 24015KT 190V280 3500 DZ BKN010 BKN016 OVC030 13/11 Q1016 REDZ
  • 251214Z 23016KT 200V280 2000 DZ BKN013 BKN022 OVC031 13/11 Q1016 REDZ
  • 251202Z 24015KT 200V280 3000 DZ FEW009 BKN014 BKN021 13/11 Q1016 REDZ
  • 251130Z 24017KT 210V270 5000 DZ BKN013 13/11 Q1016 REDZ
  • 251122Z 24017KT 210V270 4000 DZ BKN013 BKN022 13/11 Q1016 REDZ

TAF TAF LERL
Valid from the 25 at 09:00 until the 26 at 09:00 UTC


250800Z 2509/2609 24015KT 9999 BKN012 TX14/2515Z TN10/2509Z
PROB30
TEMPO 2509/2511 4000 BR BKN008
TEMPO 2512/2520 SCT018
TEMPO 2509/2519 24020G30KT
PROB30
TEMPO 2509/2518 3000 DZ BR
PROB40
TEMPO 2602/2609 2500 BCFG BR BKN008
PROB30
TEMPO 2602/2609 0200 FG OVC001



MET'MAP, your aeronautical weather chart ! - Copyright ORBIFLY December 2007 - Disclaimer

ORBIFLY MET'MAP TEAM :

Programming & Development : Alexandra Zaïnal
Concept & original design : Baudouin d'Aumeries
Assistance for programming : Marc-Olivier Méhu
Technical & hardware support : Manuel Goepfert

Contact : metmap@orbifly.com




SOURCES & CREDITS :

   NOAA